Time;durP1;ratioP1;P1;durP2;ratioP2;P2;SDS_P1;SDS_P2;PMS_P1;PMS_P2;Temp;Humidity;BMP_temperature;BMP_pressure;BME280_temperature;BME280_humidity;BME280_pressure;Samples;Min_cycle;Max_cycle;Signal;HPM_P1;HPM_P2
2022/10/17 00:02:04;;;;;;;1.27;1.10;;;;;;;-146.19;100.00;65364.44;10367834;28;20061;-63
2022/10/17 00:07:24;;;;;;;1.20;1.10;;;;;;;-146.19;100.00;65364.44;10386431;28;20393;-63
2022/10/17 00:12:43;;;;;;;1.33;1.00;;;;;;;-146.19;100.00;65364.44;10382674;28;20053;-63
2022/10/17 00:18:03;;;;;;;1.15;0.95;;;;;;;-146.19;100.00;65364.44;10386220;28;20501;-63
2022/10/17 00:23:23;;;;;;;1.92;1.00;;;;;;;-146.19;100.00;65364.44;10386145;28;20045;-63
2022/10/17 00:28:48;;;;;;;1.30;1.05;;;;;;;-146.19;100.00;65364.44;10396348;28;20041;-62
2022/10/17 00:34:07;;;;;;;1.60;1.00;;;;;;;-146.19;100.00;65364.44;10385366;28;20046;-63
2022/10/17 00:39:26;;;;;;;1.48;1.20;;;;;;;-146.19;100.00;65364.44;10385705;28;20498;-62
2022/10/17 00:44:46;;;;;;;1.20;1.10;;;;;;;-146.19;100.00;65364.44;10374957;28;20053;-62
2022/10/17 00:50:06;;;;;;;1.40;0.90;;;;;;;-146.19;100.00;65364.44;10385195;28;20042;-63
2022/10/17 00:55:28;;;;;;;2.20;0.90;;;;;;;-146.19;100.00;65364.44;10372276;28;20042;-63
2022/10/17 01:00:48;;;;;;;0.93;0.93;;;;;;;-146.19;100.00;65364.44;10374042;28;20104;-63
2022/10/17 01:06:08;;;;;;;2.67;1.10;;;;;;;-146.19;100.00;65364.44;10383782;28;20045;-63
2022/10/17 01:11:52;;;;;;;1.65;1.10;;;;;;;-146.19;100.00;65364.44;10384672;28;20432;-63
2022/10/17 01:17:47;;;;;;;1.15;1.05;;;;;;;-146.19;100.00;65364.44;10362218;28;20053;-63
2022/10/17 01:23:37;;;;;;;1.10;1.08;;;;;;;-146.19;100.00;65364.44;10357688;28;20058;-63
2022/10/17 01:29:21;;;;;;;1.23;1.08;;;;;;;-146.19;100.00;65364.44;10390492;28;20042;-63
2022/10/17 01:34:57;;;;;;;1.13;1.00;;;;;;;-146.19;100.00;65364.44;10366130;28;20048;-63
2022/10/17 01:40:24;;;;;;;1.20;1.10;;;;;;;-146.19;100.00;65364.44;10369864;28;20409;-62
2022/10/17 01:45:56;;;;;;;1.20;1.10;;;;;;;-146.19;100.00;65364.44;10356168;28;20082;-63
2022/10/17 01:51:20;;;;;;;1.17;1.08;;;;;;;-146.19;100.00;65364.44;10363312;28;20410;-63
2022/10/17 01:56:40;;;;;;;1.52;1.00;;;;;;;-146.19;100.00;65364.44;10395176;28;20100;-63
2022/10/17 02:02:00;;;;;;;0.98;0.98;;;;;;;-146.19;100.00;65364.44;10366398;28;20061;-63
2022/10/17 02:07:20;;;;;;;0.90;0.90;;;;;;;-146.19;100.00;65364.44;10376209;28;20452;-63
2022/10/17 02:13:09;;;;;;;1.20;1.00;;;;;;;-146.19;100.00;65364.44;10380626;28;20068;-62
2022/10/17 02:18:39;;;;;;;3.65;1.00;;;;;;;-146.19;100.00;65364.44;10376332;28;20045;-62
2022/10/17 02:24:10;;;;;;;1.10;1.00;;;;;;;-146.19;100.00;65364.44;10378469;28;20414;-60
2022/10/17 02:29:36;;;;;;;1.30;1.20;;;;;;;-146.19;100.00;65364.44;10400750;28;20181;-62
2022/10/17 02:34:57;;;;;;;1.20;1.10;;;;;;;-146.19;100.00;65364.44;10390322;28;20045;-63
2022/10/17 02:40:20;;;;;;;1.20;1.10;;;;;;;-146.19;100.00;65364.44;10361633;28;20100;-63
2022/10/17 02:45:39;;;;;;;1.27;0.98;;;;;;;-146.19;100.00;65364.44;10375519;28;20046;-62
2022/10/17 02:51:41;;;;;;;1.20;1.10;;;;;;;-146.19;100.00;65364.44;10373169;28;20092;-63
2022/10/17 02:57:11;;;;;;;1.20;1.10;;;;;;;-146.19;100.00;65364.44;10380515;28;20054;-59
2022/10/17 03:02:42;;;;;;;1.20;1.10;;;;;;;-146.19;100.00;65364.44;10378539;28;20080;-62
2022/10/17 03:08:02;;;;;;;1.95;1.00;;;;;;;-146.19;100.00;65364.44;10374096;28;20053;-63
2022/10/17 03:13:22;;;;;;;1.05;0.95;;;;;;;-146.19;100.00;65364.44;10389275;28;20049;-63
2022/10/17 03:18:42;;;;;;;1.30;1.20;;;;;;;-146.19;100.00;65364.44;10373779;28;20073;-63
2022/10/17 03:24:02;;;;;;;1.35;1.10;;;;;;;-146.19;100.00;65364.44;10373479;28;20108;-63
2022/10/17 03:29:21;;;;;;;1.10;1.00;;;;;;;-146.19;100.00;65364.44;10373580;28;20397;-63
2022/10/17 03:34:41;;;;;;;1.25;1.15;;;;;;;-146.19;100.00;65364.44;10375164;28;20045;-61
2022/10/17 03:40:02;;;;;;;1.05;0.95;;;;;;;-146.19;100.00;65364.44;10374347;28;20415;-63
2022/10/17 03:45:23;;;;;;;1.17;1.08;;;;;;;-146.19;100.00;65364.44;10379317;28;20057;-63
2022/10/17 03:50:44;;;;;;;1.45;1.10;;;;;;;-146.19;100.00;65364.44;10372733;28;20519;-63
2022/10/17 03:56:21;;;;;;;1.17;1.08;;;;;;;-146.19;100.00;65364.44;10361937;28;20048;-63
2022/10/17 04:02:03;;;;;;;1.40;1.30;;;;;;;-146.19;100.00;65364.44;10362661;28;20084;-63
2022/10/17 04:07:23;;;;;;;2.95;1.50;;;;;;;-146.19;100.00;65364.44;10386739;28;20053;-63
2022/10/17 04:12:43;;;;;;;1.50;1.40;;;;;;;-146.19;100.00;65364.44;10357992;28;20486;-64
2022/10/17 04:18:02;;;;;;;1.40;1.30;;;;;;;-146.19;100.00;65364.44;10371314;28;20038;-63
2022/10/17 04:23:22;;;;;;;1.98;1.50;;;;;;;-146.19;100.00;65364.44;10358605;28;20058;-64
2022/10/17 04:28:45;;;;;;;2.03;1.30;;;;;;;-146.19;100.00;65364.44;10392609;28;20056;-62
2022/10/17 04:34:05;;;;;;;1.63;1.30;;;;;;;-146.19;100.00;65364.44;10364753;28;20046;-63
2022/10/17 04:39:26;;;;;;;1.40;1.30;;;;;;;-146.19;100.00;65364.44;10367436;28;20412;-62
2022/10/17 04:44:46;;;;;;;1.63;1.30;;;;;;;-146.19;100.00;65364.44;10388849;28;20052;-62
2022/10/17 04:50:08;;;;;;;2.55;1.42;;;;;;;-146.19;100.00;65364.44;10373128;28;20049;-62
2022/10/17 04:55:29;;;;;;;1.42;1.33;;;;;;;-146.19;100.00;65364.44;10377652;28;20473;-62
2022/10/17 05:00:48;;;;;;;2.17;1.40;;;;;;;-146.19;100.00;65364.44;10347864;28;20050;-62
2022/10/17 05:06:20;;;;;;;2.20;1.30;;;;;;;-146.19;100.00;65364.44;10371337;28;20058;-62
2022/10/17 05:11:53;;;;;;;12.20;8.17;;;;;;;-146.19;100.00;65364.44;10357792;28;20058;-63
2022/10/17 05:17:12;;;;;;;3.50;1.92;;;;;;;-146.19;100.00;65364.44;10365142;28;20045;-63
2022/10/17 05:22:32;;;;;;;2.72;2.17;;;;;;;-146.19;100.00;65364.44;10373563;28;20038;-62
2022/10/17 05:27:52;;;;;;;7.43;3.42;;;;;;;-146.19;100.00;65364.44;10374439;28;20516;-63
2022/10/17 05:33:12;;;;;;;7.07;4.15;;;;;;;-146.19;100.00;65364.44;10375344;28;20045;-62
2022/10/17 05:38:32;;;;;;;9.77;4.10;;;;;;;-146.19;100.00;65364.44;10375064;28;20056;-63
2022/10/17 05:43:52;;;;;;;9.90;4.47;;;;;;;-146.19;100.00;65364.44;10393560;28;20042;-63
2022/10/17 05:49:18;;;;;;;10.63;4.47;;;;;;;-146.19;100.00;65364.44;10376870;28;20551;-63
2022/10/17 05:54:39;;;;;;;10.40;4.63;;;;;;;-146.19;100.00;65364.44;10380239;28;20038;-63
2022/10/17 05:59:59;;;;;;;12.15;4.88;;;;;;;-146.19;100.00;65364.44;10370730;28;20493;-63
2022/10/17 06:05:21;;;;;;;13.75;4.90;;;;;;;-146.19;100.00;65364.44;10376497;28;20050;-63
2022/10/17 06:10:40;;;;;;;15.07;5.40;;;;;;;-146.19;100.00;65364.44;10392879;28;20413;-63
2022/10/17 06:16:00;;;;;;;8.68;4.18;;;;;;;-146.19;100.00;65364.44;10390717;28;20486;-63
2022/10/17 06:21:25;;;;;;;9.88;4.93;;;;;;;-146.19;100.00;65364.44;10376051;28;20045;-63
2022/10/17 06:26:49;;;;;;;12.90;5.55;;;;;;;-146.19;100.00;65364.44;10381331;28;20057;-63
2022/10/17 06:32:09;;;;;;;10.95;4.90;;;;;;;-146.19;100.00;65364.44;10362146;28;20092;-62
2022/10/17 06:37:31;;;;;;;9.93;5.15;;;;;;;-146.19;100.00;65364.44;10368356;28;20073;-63
2022/10/17 06:42:51;;;;;;;8.40;4.75;;;;;;;-146.19;100.00;65364.44;10394085;28;20045;-63
2022/10/17 06:48:36;;;;;;;10.77;5.20;;;;;;;-146.19;100.00;65364.44;10389587;28;20042;-63
2022/10/17 06:54:21;;;;;;;8.95;4.90;;;;;;;-146.19;100.00;65364.44;10380420;28;20038;-63
2022/10/17 07:00:05;;;;;;;8.60;5.53;;;;;;;-146.19;100.00;65364.44;10362497;28;20060;-62
2022/10/17 07:05:32;;;;;;;8.68;5.55;;;;;;;-146.19;100.00;65364.44;10374347;28;20046;-63
2022/10/17 07:10:52;;;;;;;9.20;5.13;;;;;;;-146.19;100.00;65364.44;10402010;28;20046;-63
2022/10/17 07:16:12;;;;;;;7.70;5.25;;;;;;;-146.19;100.00;65364.44;10374841;28;20042;-63
2022/10/17 07:21:33;;;;;;;9.15;5.38;;;;;;;-146.19;100.00;65364.44;10373845;28;20506;-62
2022/10/17 07:26:53;;;;;;;7.68;4.53;;;;;;;-146.19;100.00;65364.44;10375877;28;20046;-63
2022/10/17 07:32:13;;;;;;;9.35;5.15;;;;;;;-146.19;100.00;65364.44;10359879;28;20038;-60
2022/10/17 07:37:33;;;;;;;9.68;5.15;;;;;;;-146.19;100.00;65364.44;10388841;28;20042;-64
2022/10/17 07:42:54;;;;;;;9.85;5.40;;;;;;;-146.19;100.00;65364.44;10388230;28;20038;-63
2022/10/17 07:48:14;;;;;;;7.35;5.18;;;;;;;-146.19;100.00;65364.44;10364476;28;20041;-64
2022/10/17 07:53:38;;;;;;;9.10;5.10;;;;;;;-146.19;100.00;65364.44;10389442;28;20038;-64
2022/10/17 07:58:57;;;;;;;7.82;5.35;;;;;;;-146.19;100.00;65364.44;10373931;28;20066;-64
2022/10/17 08:04:17;;;;;;;7.88;5.53;;;;;;;-146.19;100.00;65364.44;10387179;28;20531;-64
2022/10/17 08:09:36;;;;;;;7.28;5.55;;;;;;;-146.19;100.00;65364.44;10392740;28;20042;-64
2022/10/17 08:14:55;;;;;;;9.00;5.07;;;;;;;-146.19;100.00;65364.44;10373981;28;20405;-65
2022/10/17 08:20:16;;;;;;;8.77;5.28;;;;;;;-146.19;100.00;65364.44;10373742;28;20136;-64
2022/10/17 08:25:38;;;;;;;9.82;4.97;;;;;;;-146.19;100.00;65364.44;10386831;28;20050;-64
2022/10/17 08:31:02;;;;;;;8.90;5.13;;;;;;;-146.19;100.00;65364.44;10386461;28;20409;-65
2022/10/17 08:36:22;;;;;;;9.82;4.90;;;;;;;-146.19;100.00;65364.44;10385131;28;20100;-64
2022/10/17 08:41:54;;;;;;;9.45;5.68;;;;;;;-146.19;100.00;65364.44;10375405;28;20113;-64
2022/10/17 08:47:21;;;;;;;9.07;5.70;;;;;;;-146.19;100.00;65364.44;10385835;28;20046;-65
2022/10/17 08:52:49;;;;;;;10.88;7.15;;;;;;;-146.19;100.00;65364.44;10384897;28;20487;-65
2022/10/17 08:58:20;;;;;;;8.60;5.27;;;;;;;-146.19;100.00;65364.44;10391374;28;20053;-65
2022/10/17 09:03:58;;;;;;;7.95;5.53;;;;;;;-146.19;100.00;65364.44;10393248;28;20046;-65
2022/10/17 09:09:28;;;;;;;6.63;5.20;;;;;;;-146.19;100.00;65364.44;10406733;28;20045;-63
2022/10/17 09:15:08;;;;;;;8.35;5.72;;;;;;;-146.19;100.00;65364.44;10398876;28;20037;-66
2022/10/17 09:20:32;;;;;;;7.57;5.95;;;;;;;-146.19;100.00;65364.44;10383741;28;20049;-65
2022/10/17 09:25:54;;;;;;;6.85;5.53;;;;;;;-146.19;100.00;65364.44;10401060;28;20402;-64
2022/10/17 09:31:23;;;;;;;7.15;5.70;;;;;;;-146.19;100.00;65364.44;10398623;28;20494;-64
2022/10/17 09:36:42;;;;;;;8.48;5.55;;;;;;;-146.19;100.00;65364.44;10387159;28;20042;-63
2022/10/17 09:42:02;;;;;;;7.15;5.22;;;;;;;-146.19;100.00;65364.44;10401325;28;20058;-63
2022/10/17 09:47:27;;;;;;;8.05;5.85;;;;;;;-146.19;100.00;65364.44;10383600;28;20417;-63
2022/10/17 09:52:49;;;;;;;8.27;5.50;;;;;;;-146.19;100.00;65364.44;10397779;28;20048;-64
2022/10/17 09:58:09;;;;;;;7.97;5.70;;;;;;;-146.19;100.00;65364.44;10381694;28;20050;-63
2022/10/17 10:03:29;;;;;;;7.50;5.10;;;;;;;-146.19;100.00;65364.44;10380920;28;20068;-64
2022/10/17 10:08:53;;;;;;;6.35;5.35;;;;;;;-146.19;100.00;65364.44;10399508;28;20049;-64
2022/10/17 10:14:19;;;;;;;6.30;5.20;;;;;;;-146.19;100.00;65364.44;10382240;28;20049;-63
2022/10/17 10:19:49;;;;;;;5.95;5.00;;;;;;;-146.19;100.00;65364.44;10391153;28;20048;-65
2022/10/17 10:25:15;;;;;;;5.90;5.05;;;;;;;-146.19;100.00;65364.44;10387627;28;20060;-64
2022/10/17 10:30:35;;;;;;;6.35;5.45;;;;;;;-146.19;100.00;65364.44;10371312;28;20057;-65
2022/10/17 10:36:03;;;;;;;5.88;4.97;;;;;;;-146.19;100.00;65364.44;10390424;28;20040;-64
2022/10/17 10:41:26;;;;;;;6.13;5.50;;;;;;;-146.19;100.00;65364.44;10393102;28;20044;-65
2022/10/17 10:46:46;;;;;;;14.52;7.93;;;;;;;-146.19;100.00;65364.44;10390956;28;20108;-65
2022/10/17 10:52:07;;;;;;;7.00;5.43;;;;;;;-146.19;100.00;65364.44;10390138;28;20049;-64
2022/10/17 10:57:29;;;;;;;7.03;5.75;;;;;;;-146.19;100.00;65364.44;10374929;28;20120;-64
2022/10/17 11:02:52;;;;;;;8.50;6.25;;;;;;;-146.19;100.00;65364.44;10365537;28;20045;-63
2022/10/17 11:08:41;;;;;;;9.57;6.10;;;;;;;-146.19;100.00;65364.44;10401052;28;20046;-63
2022/10/17 11:14:07;;;;;;;7.22;6.20;;;;;;;-146.19;100.00;65364.44;10373804;28;20062;-63
2022/10/17 11:19:42;;;;;;;7.22;5.78;;;;;;;-146.19;100.00;65364.44;10374042;28;20042;-63
2022/10/17 11:25:11;;;;;;;7.18;5.45;;;;;;;-146.19;100.00;65364.44;10400530;28;20410;-62
2022/10/17 11:30:41;;;;;;;7.25;5.72;;;;;;;-146.19;100.00;65364.44;10388396;28;20044;-63
2022/10/17 11:36:04;;;;;;;10.63;7.20;;;;;;;-146.19;100.00;65364.44;10373232;28;20041;-59
2022/10/17 11:41:44;;;;;;;11.82;7.65;;;;;;;-146.19;100.00;65364.44;10381787;28;20038;-63
2022/10/17 11:47:26;;;;;;;12.63;8.48;;;;;;;-146.19;100.00;65364.44;10374777;28;20071;-62
2022/10/17 11:52:50;;;;;;;15.00;9.13;;;;;;;-146.19;100.00;65364.44;10392988;28;20050;-62
2022/10/17 11:58:37;;;;;;;15.00;10.38;;;;;;;-146.19;100.00;65364.44;10370067;28;20453;-61
2022/10/17 12:04:15;;;;;;;13.55;9.55;;;;;;;-146.19;100.00;65364.44;10383503;28;20053;-63
2022/10/17 12:09:48;;;;;;;15.13;9.52;;;;;;;-146.19;100.00;65364.44;10387999;28;20038;-64
2022/10/17 12:15:10;;;;;;;10.40;8.38;;;;;;;-146.19;100.00;65364.44;10358499;28;20486;-63
2022/10/17 12:20:32;;;;;;;12.27;9.10;;;;;;;-146.19;100.00;65364.44;10386570;28;20104;-62
2022/10/17 12:25:54;;;;;;;10.23;8.02;;;;;;;-146.19;100.00;65364.44;10372362;28;20045;-62
2022/10/17 12:31:24;;;;;;;10.48;8.23;;;;;;;-146.19;100.00;65364.44;10371869;28;20445;-62
2022/10/17 12:36:43;;;;;;;9.70;8.20;;;;;;;-146.19;100.00;65364.44;10379897;28;20049;-62
2022/10/17 12:42:30;;;;;;;9.65;8.35;;;;;;;-146.19;100.00;65364.44;10386095;28;20042;-62
2022/10/17 12:47:49;;;;;;;10.25;8.40;;;;;;;-146.19;100.00;65364.44;10385724;28;20042;-62
2022/10/17 12:53:15;;;;;;;10.15;8.40;;;;;;;-146.19;100.00;65364.44;10396258;28;20042;-62
2022/10/17 12:58:35;;;;;;;9.52;8.15;;;;;;;-146.19;100.00;65364.44;10381240;28;20054;-62
2022/10/17 13:03:54;;;;;;;8.98;8.07;;;;;;;-146.19;100.00;65364.44;10361925;28;20096;-62
2022/10/17 13:09:29;;;;;;;8.98;8.07;;;;;;;-146.19;100.00;65364.44;10354851;28;20042;-62
2022/10/17 13:14:50;;;;;;;9.43;7.60;;;;;;;-146.19;100.00;65364.44;10385165;28;20040;-62
2022/10/17 13:20:22;;;;;;;8.73;7.43;;;;;;;-146.19;100.00;65364.44;10362536;28;20088;-61
2022/10/17 13:25:41;;;;;;;8.65;7.38;;;;;;;-146.19;100.00;65364.44;10374742;28;20049;-61
2022/10/17 13:31:01;;;;;;;8.00;7.20;;;;;;;-146.19;100.00;65364.44;10385125;28;20037;-63
2022/10/17 13:36:20;;;;;;;8.27;7.38;;;;;;;-146.19;100.00;65364.44;10387278;28;20444;-62
2022/10/17 13:41:40;;;;;;;8.73;7.32;;;;;;;-146.19;100.00;65364.44;10387961;28;20149;-62
2022/10/17 13:47:00;;;;;;;8.45;7.30;;;;;;;-146.19;100.00;65364.44;10379261;28;20057;-62
2022/10/17 13:52:22;;;;;;;8.93;7.63;;;;;;;-146.19;100.00;65364.44;10379821;28;20097;-62
2022/10/17 13:57:41;;;;;;;8.95;7.38;;;;;;;-146.19;100.00;65364.44;10376218;28;20058;-62
2022/10/17 14:03:00;;;;;;;8.13;7.32;;;;;;;-146.19;100.00;65364.44;10391986;28;20049;-61
2022/10/17 14:08:20;;;;;;;8.50;7.40;;;;;;;-146.19;100.00;65364.44;10388047;28;20050;-62
2022/10/17 14:13:39;;;;;;;7.85;7.07;;;;;;;-146.19;100.00;65364.44;10378397;28;20133;-62
2022/10/17 14:18:59;;;;;;;7.60;6.80;;;;;;;-146.19;100.00;65364.44;10388739;28;20042;-62
2022/10/17 14:24:21;;;;;;;8.45;7.40;;;;;;;-146.19;100.00;65364.44;10386982;28;20042;-62
2022/10/17 14:29:51;;;;;;;7.90;6.97;;;;;;;-146.19;100.00;65364.44;10378141;28;20134;-62
2022/10/17 14:35:15;;;;;;;7.38;6.68;;;;;;;-146.19;100.00;65364.44;10390831;28;20037;-61
2022/10/17 14:40:35;;;;;;;8.30;6.95;;;;;;;-146.19;100.00;65364.44;10392867;28;20038;-62
2022/10/17 14:45:59;;;;;;;8.20;7.38;;;;;;;-146.19;100.00;65364.44;10390450;28;20045;-62
2022/10/17 14:51:18;;;;;;;7.35;6.57;;;;;;;-146.19;100.00;65364.44;10372137;28;20057;-62
2022/10/17 14:56:40;;;;;;;7.00;6.40;;;;;;;-146.19;100.00;65364.44;10373562;28;20046;-62
2022/10/17 15:01:59;;;;;;;7.60;6.80;;;;;;;-146.19;100.00;65364.44;10350104;28;20418;-62
2022/10/17 15:07:20;;;;;;;8.35;7.35;;;;;;;-146.19;100.00;65364.44;10389934;28;20053;-63
2022/10/17 15:12:39;;;;;;;7.78;6.97;;;;;;;-146.19;100.00;65364.44;10371630;28;20088;-62
2022/10/17 15:17:59;;;;;;;14.20;7.82;;;;;;;-146.19;100.00;65364.44;10388564;28;20045;-62
2022/10/17 15:23:18;;;;;;;11.73;7.50;;;;;;;-146.19;100.00;65364.44;10390580;28;20049;-62
2022/10/17 15:28:37;;;;;;;11.90;7.75;;;;;;;-146.19;100.00;65364.44;10388396;28;20489;-61
2022/10/17 15:33:57;;;;;;;15.73;7.78;;;;;;;-146.19;100.00;65364.44;10374935;28;20050;-62
2022/10/17 15:39:16;;;;;;;8.48;7.60;;;;;;;-146.19;100.00;65364.44;10374697;28;20062;-60
2022/10/17 15:44:35;;;;;;;8.60;7.32;;;;;;;-146.19;100.00;65364.44;10387415;28;20204;-62
2022/10/17 15:49:55;;;;;;;9.98;7.82;;;;;;;-146.19;100.00;65364.44;10380834;28;20092;-67
2022/10/17 15:55:16;;;;;;;12.98;8.20;;;;;;;-146.19;100.00;65364.44;10387052;28;20050;-65
2022/10/17 16:00:35;;;;;;;11.65;7.65;;;;;;;-146.19;100.00;65364.44;10372556;28;20065;-67
2022/10/17 16:05:55;;;;;;;9.15;7.85;;;;;;;-146.19;100.00;65364.44;10390057;28;20042;-66
2022/10/17 16:11:24;;;;;;;10.35;8.40;;;;;;;-146.19;100.00;65364.44;10385719;28;20042;-63
2022/10/17 16:16:44;;;;;;;12.30;9.25;;;;;;;-146.19;100.00;65364.44;10376155;28;20105;-63
2022/10/17 16:22:05;;;;;;;14.07;9.02;;;;;;;-146.19;100.00;65364.44;10396068;28;20042;-62
2022/10/17 16:27:25;;;;;;;12.55;9.15;;;;;;;-146.19;100.00;65364.44;10386000;28;20520;-64
2022/10/17 16:32:45;;;;;;;10.48;9.20;;;;;;;-146.19;100.00;65364.44;10386155;28;20044;-64
2022/10/17 16:38:06;;;;;;;14.85;9.30;;;;;;;-146.19;100.00;65364.44;10391803;28;20046;-64
2022/10/17 16:43:25;;;;;;;13.07;8.70;;;;;;;-146.19;100.00;65364.44;10373015;28;20041;-65
2022/10/17 16:48:45;;;;;;;10.35;8.35;;;;;;;-146.19;100.00;65364.44;10384867;28;20038;-62
2022/10/17 16:54:04;;;;;;;11.57;8.85;;;;;;;-146.19;100.00;65364.44;10383342;28;20042;-63
2022/10/17 16:59:24;;;;;;;11.13;8.68;;;;;;;-146.19;100.00;65364.44;10365324;28;20061;-63
2022/10/17 17:04:43;;;;;;;14.35;8.77;;;;;;;-146.19;100.00;65364.44;10373710;28;20042;-61
2022/10/17 17:10:03;;;;;;;15.45;8.88;;;;;;;-146.19;100.00;65364.44;10357890;28;20050;-62
2022/10/17 17:15:23;;;;;;;12.35;8.05;;;;;;;-146.19;100.00;65364.44;10384572;28;20061;-61
2022/10/17 17:20:42;;;;;;;11.20;8.27;;;;;;;-146.19;100.00;65364.44;10387501;28;20100;-60
2022/10/17 17:26:05;;;;;;;14.00;10.40;;;;;;;-146.19;100.00;65364.44;10393222;28;20054;-63
2022/10/17 17:31:27;;;;;;;15.05;10.00;;;;;;;-146.19;100.00;65364.44;10393097;28;20045;-62
2022/10/17 17:36:47;;;;;;;9.43;8.23;;;;;;;-146.19;100.00;65364.44;10405059;28;20041;-61
2022/10/17 17:42:06;;;;;;;11.35;9.07;;;;;;;-146.19;100.00;65364.44;10378159;28;20181;-64
2022/10/17 17:47:27;;;;;;;10.65;8.60;;;;;;;-146.19;100.00;65364.44;10381997;28;20056;-63
2022/10/17 17:52:49;;;;;;;10.85;8.77;;;;;;;-146.19;100.00;65364.44;10394988;28;20057;-62
2022/10/17 17:58:11;;;;;;;13.90;9.07;;;;;;;-146.19;100.00;65364.44;10372970;28;20053;-62
2022/10/17 18:03:30;;;;;;;14.93;8.57;;;;;;;-146.19;100.00;65364.44;10385271;28;20308;-61
2022/10/17 18:08:52;;;;;;;17.77;9.18;;;;;;;-146.19;100.00;65364.44;10391434;28;20406;-60
2022/10/17 18:14:12;;;;;;;13.90;8.18;;;;;;;-146.19;100.00;65364.44;10390733;28;20038;-62
2022/10/17 18:19:32;;;;;;;14.95;9.02;;;;;;;-146.19;100.00;65364.44;10388622;28;20040;-62
2022/10/17 18:24:52;;;;;;;11.55;8.52;;;;;;;-146.19;100.00;65364.44;10390361;28;20054;-61
2022/10/17 18:30:12;;;;;;;13.93;8.60;;;;;;;-146.19;100.00;65364.44;10376632;28;20057;-62
2022/10/17 18:35:34;;;;;;;14.75;8.68;;;;;;;-146.19;100.00;65364.44;10399890;28;20034;-62
2022/10/17 18:41:11;;;;;;;15.38;9.10;;;;;;;-146.19;100.00;65364.44;10390188;28;20041;-63
2022/10/17 18:46:34;;;;;;;12.02;9.00;;;;;;;-146.19;100.00;65364.44;10389888;28;20054;-61
2022/10/17 18:51:54;;;;;;;10.05;8.20;;;;;;;-146.19;100.00;65364.44;10397232;28;20042;-63
2022/10/17 18:57:14;;;;;;;10.07;7.97;;;;;;;-146.19;100.00;65364.44;10382613;28;20038;-62
2022/10/17 19:02:34;;;;;;;10.93;8.20;;;;;;;-146.19;100.00;65364.44;10382583;28;20497;-61
2022/10/17 19:07:53;;;;;;;12.65;7.80;;;;;;;-146.19;100.00;65364.44;10389997;28;20543;-64
2022/10/17 19:13:13;;;;;;;9.35;7.88;;;;;;;-146.19;100.00;65364.44;10374085;28;20046;-64
2022/10/17 19:18:33;;;;;;;11.88;7.75;;;;;;;-146.19;100.00;65364.44;10396271;28;20034;-64
2022/10/17 19:23:59;;;;;;;10.90;8.35;;;;;;;-146.19;100.00;65364.44;10388572;28;20049;-63
2022/10/17 19:29:20;;;;;;;8.95;7.85;;;;;;;-146.19;100.00;65364.44;10377905;28;20044;-62
2022/10/17 19:34:39;;;;;;;10.10;7.85;;;;;;;-146.19;100.00;65364.44;10387491;28;20077;-63
2022/10/17 19:39:59;;;;;;;10.05;7.60;;;;;;;-146.19;100.00;65364.44;10386668;28;20088;-63
2022/10/17 19:45:18;;;;;;;10.95;8.13;;;;;;;-146.19;100.00;65364.44;10387711;28;20042;-63
2022/10/17 19:50:43;;;;;;;9.60;7.57;;;;;;;-146.19;100.00;65364.44;10373156;28;20045;-62
2022/10/17 19:56:03;;;;;;;9.30;7.60;;;;;;;-146.19;100.00;65364.44;10369610;28;20075;-61
2022/10/17 20:01:25;;;;;;;11.20;7.88;;;;;;;-146.19;100.00;65364.44;10373102;28;20053;-61
2022/10/17 20:06:45;;;;;;;8.77;7.88;;;;;;;-146.19;100.00;65364.44;10389285;28;20516;-62
2022/10/17 20:12:04;;;;;;;9.95;7.63;;;;;;;-146.19;100.00;65364.44;10387224;28;20140;-61
2022/10/17 20:17:24;;;;;;;9.02;7.82;;;;;;;-146.19;100.00;65364.44;10394195;28;20041;-61
2022/10/17 20:22:44;;;;;;;9.40;7.32;;;;;;;-146.19;100.00;65364.44;10375664;28;20424;-61
2022/10/17 20:28:03;;;;;;;8.95;7.28;;;;;;;-146.19;100.00;65364.44;10386339;28;20473;-62
2022/10/17 20:33:23;;;;;;;11.15;7.32;;;;;;;-146.19;100.00;65364.44;10379809;28;20049;-63
2022/10/17 20:38:42;;;;;;;8.50;7.10;;;;;;;-146.19;100.00;65364.44;10380420;28;20053;-64
2022/10/17 20:44:02;;;;;;;9.18;7.22;;;;;;;-146.19;100.00;65364.44;10385221;28;20045;-63
2022/10/17 20:49:22;;;;;;;7.90;7.10;;;;;;;-146.19;100.00;65364.44;10384237;28;20391;-64
2022/10/17 20:54:42;;;;;;;8.73;7.85;;;;;;;-146.19;100.00;65364.44;10384823;28;20053;-63
2022/10/17 21:00:03;;;;;;;7.65;6.95;;;;;;;-146.19;100.00;65364.44;10376679;28;20058;-65
2022/10/17 21:05:23;;;;;;;8.38;7.00;;;;;;;-146.19;100.00;65364.44;10388191;28;20099;-65
2022/10/17 21:10:42;;;;;;;7.82;7.03;;;;;;;-146.19;100.00;65364.44;10379763;28;20382;-63
2022/10/17 21:16:18;;;;;;;9.57;7.05;;;;;;;-146.19;100.00;65364.44;10389281;28;20060;-64
2022/10/17 21:21:40;;;;;;;8.55;7.70;;;;;;;-146.19;100.00;65364.44;10377005;28;20116;-63
2022/10/17 21:26:59;;;;;;;8.65;6.75;;;;;;;-146.19;100.00;65364.44;10384876;28;20038;-63
2022/10/17 21:32:19;;;;;;;11.88;7.53;;;;;;;-146.19;100.00;65364.44;10387281;28;20440;-63
2022/10/17 21:37:38;;;;;;;7.90;7.05;;;;;;;-146.19;100.00;65364.44;10371744;28;20054;-64
2022/10/17 21:42:57;;;;;;;8.00;6.55;;;;;;;-146.19;100.00;65364.44;10384398;28;20048;-63
2022/10/17 21:48:17;;;;;;;7.70;6.93;;;;;;;-146.19;100.00;65364.44;10376107;28;20050;-63
2022/10/17 21:53:37;;;;;;;9.27;7.15;;;;;;;-146.19;100.00;65364.44;10384738;28;20045;-62
2022/10/17 21:58:58;;;;;;;8.02;6.70;;;;;;;-146.19;100.00;65364.44;10373613;28;20045;-62
2022/10/17 22:04:18;;;;;;;8.75;6.68;;;;;;;-146.19;100.00;65364.44;10385662;28;20505;-62
2022/10/17 22:09:38;;;;;;;7.30;6.60;;;;;;;-146.19;100.00;65364.44;10391073;28;20038;-62
2022/10/17 22:14:57;;;;;;;7.05;6.45;;;;;;;-146.19;100.00;65364.44;10398612;28;20042;-62
2022/10/17 22:20:16;;;;;;;6.50;5.85;;;;;;;-146.19;100.00;65364.44;10363019;28;20057;-62
2022/10/17 22:25:35;;;;;;;6.82;6.13;;;;;;;-146.19;100.00;65364.44;10390682;28;20424;-62
2022/10/17 22:30:55;;;;;;;7.55;6.55;;;;;;;-146.19;100.00;65364.44;10402585;28;20486;-62
2022/10/17 22:36:14;;;;;;;7.40;6.70;;;;;;;-146.19;100.00;65364.44;10390626;28;20238;-62
2022/10/17 22:41:34;;;;;;;7.72;6.80;;;;;;;-146.19;100.00;65364.44;10385183;28;20402;-62
2022/10/17 22:46:53;;;;;;;7.43;6.65;;;;;;;-146.19;100.00;65364.44;10400684;28;20048;-62
2022/10/17 22:52:13;;;;;;;7.28;6.60;;;;;;;-146.19;100.00;65364.44;10389839;28;20049;-62
2022/10/17 22:57:32;;;;;;;7.88;6.40;;;;;;;-146.19;100.00;65364.44;10388704;28;20049;-62
2022/10/17 23:02:54;;;;;;;6.85;6.20;;;;;;;-146.19;100.00;65364.44;10384998;28;20045;-62
2022/10/17 23:08:14;;;;;;;8.00;6.57;;;;;;;-146.19;100.00;65364.44;10389188;28;20046;-62
2022/10/17 23:13:34;;;;;;;6.70;6.10;;;;;;;-146.19;100.00;65364.44;10389516;28;20045;-62
2022/10/17 23:18:53;;;;;;;7.10;6.40;;;;;;;-146.19;100.00;65364.44;10388707;28;20038;-62
2022/10/17 23:24:13;;;;;;;6.72;6.03;;;;;;;-146.19;100.00;65364.44;10388716;28;20046;-62
2022/10/17 23:29:32;;;;;;;7.03;6.35;;;;;;;-146.19;100.00;65364.44;10396706;28;20045;-62
2022/10/17 23:34:52;;;;;;;7.20;6.40;;;;;;;-146.19;100.00;65364.44;10388025;28;20504;-62
2022/10/17 23:40:12;;;;;;;6.65;6.00;;;;;;;-146.19;100.00;65364.44;10376565;28;20166;-62
2022/10/17 23:45:31;;;;;;;6.70;6.10;;;;;;;-146.19;100.00;65364.44;10392917;28;20041;-62
2022/10/17 23:50:51;;;;;;;7.03;6.20;;;;;;;-146.19;100.00;65364.44;10387516;28;20046;-62
2022/10/17 23:56:10;;;;;;;6.45;5.85;;;;;;;-146.19;100.00;65364.44;10370837;28;20536;-62
